Charles Clark

Scout - Charlton Athletic
11 Mär 2027
Donnerstag
Verarbeitung

Persönlichkeit

Anpassungsfähigkeit (9) Ehrgeiz (3) Kontroverse (15) Loyalität (1) Druck (16) Professionalität (1) Fairness (6) Temperament (10)

Profil

Trainerstil Demokratisch
Lizenz Kontinentale C
Entschlossenheit 4
Menschenführung 7
Motivation 4
Disziplin 9
Arbeitszufriedenheit
94%
Ermüdung
0%
Rolle Scout
Gehalt 54.8K p/W
Vertrag 14.03.2028

Leistung

Verhalten Gut
Trainingseffektivität
38%
Spielerentwicklung
30%
Verletzungsprävention
30%
Taktische Umsetzung
55%

Letzte Ereignisse

Spieler begutachtet jetzt
Nahm an einer Scouting-Besprechung teil jetzt
Spieler begutachtet 7T her
Nahm an einer Scouting-Besprechung teil 7T her
Empfahl ein Transferziel 7T her
Spieler begutachtet 7T her
Spieler begutachtet 7T her
Empfahl ein Transferziel 14T her

Aktuell beobachtet

142
Spieler Verein Status Fähigkeit Vertrauen Beobachtet Zuletzt beobachtet Letzte Stimme
Fletcher Holman Swindon Town Aktiv 89 / 92 40% 1 10.03.2027 -
Dylan Jones Norwich City Aktiv 76 / 81 40% 1 10.03.2027 -
Lorenzo De Leo Renate Aktiv 94 / 106 40% 1 10.03.2027 -
Harrison Ofori Liberty Professionals Aktiv 105 / 91 40% 2 08.03.2027 -
Ognjen Bondžulić Mladost Lucani Aktiv 103 / 106 40% 1 08.03.2027 -
Borna Knezović Casarano Aktiv 106 / 113 40% 1 08.03.2027 -
Víctor Guzmán Sporting CP Aktiv 88 / 105 40% 1 05.03.2027 -
Thomas Waddingham Portsmouth Aktiv 107 / 114 40% 1 05.03.2027 -
Keagan Mokoena Free State Stars Aktiv 87 / 105 40% 2 02.03.2027 -
Hazeem Bakre Crawley Town Aktiv 85 / 87 40% 1 02.03.2027 -
Sidiki Chérif Coventry City Aktiv 125 / 127 40% 1 02.03.2027 -
Anestis Mythou PAOK Aktiv 100 / 96 40% 1 01.03.2027 -
Khama Zwane Free State Stars Aktiv 80 / 88 40% 1 01.03.2027 -
Sabil Hansen Randers Aktiv 112 / 104 40% 1 08.02.2027 -
Riley Owen Trento Aktiv 100 / 101 40% 1 08.02.2027 -
Davide Bartesaghi AC Milan Aktiv 128 / 140 40% 1 08.02.2027 -
Felix Afful Liberty Professionals Aktiv 88 / 84 40% 1 07.02.2027 -
Tiago Freitas Benfica Aktiv 109 / 107 40% 1 07.02.2027 -
Dean Huijsen Villarreal Aktiv 137 / 149 40% 1 07.02.2027 -
Keagan Tau Ajax Cape Town Aktiv 82 / 106 40% 1 06.02.2027 -
Keagan Phiri Platinum Stars Aktiv 107 / 93 40% 1 06.02.2027 -
Zane Albarus Cambridge United Aktiv 91 / 101 40% 1 06.02.2027 -
Ibrahim Maza Bayer Leverkusen Aktiv 146 / 147 40% 1 05.02.2027 -
Leandro Martins Benfica Aktiv 87 / 96 40% 1 05.02.2027 -
Joel McGregor Swindon Town Aktiv 85 / 99 40% 1 05.02.2027 -
Darryl Bakola Padova Aktiv 110 / 115 40% 1 01.02.2027 -
Jan Bürger Gillingham Aktiv 106 / 117 40% 1 01.02.2027 -
Emmanuel Mathias Ikorodu City Aktiv 89 / 100 40% 1 01.02.2027 -
Lucas Akins Mansfield Town Verloren 93 / 107 72% 1 11.01.2027 -
Mduduzi Shabalala Kaizer Chiefs Aktiv 121 / 103 40% 2 31.12.2026 -
Kwadwo Baah Watford Aktiv 129 / 130 40% 1 31.12.2026 -
Mohamed-Ali Cho Hull City Aktiv 138 / 138 40% 1 31.12.2026 -
Mohammed Yahaya Great Olympics Aktiv 82 / 94 40% 2 30.12.2026 -
Tommy Conway Middlesbrough Aktiv 130 / 132 40% 2 30.12.2026 -
Niall Ennis Blackpool Aktiv 118 / 115 40% 1 30.12.2026 -
Finn Azaz Southampton Aktiv 134 / 135 40% 1 29.12.2026 -
Caio Vidal Ludogorets Aktiv 131 / 122 40% 1 29.12.2026 -
Ruben van Bommel Ferencvaros Aktiv 134 / 135 40% 2 28.12.2026 -
Tom Fellows Southampton Aktiv 133 / 129 40% 1 28.12.2026 -
Toby Collyer West Bromwich Albion Aktiv 125 / 128 40% 1 28.12.2026 -
Leonardo Campana New England Revolution Aktiv 117 / 116 40% 1 27.12.2026 -
Gonzalo Plata Dinamo Moscow Aktiv 130 / 127 40% 1 27.12.2026 -
Kyle Jurgens Maritzburg United Aktiv 114 / 98 40% 2 24.12.2026 -
Siyanda Msani University of Pretoria Aktiv 98 / 109 40% 1 24.12.2026 -
Kutlwano Letlhaku Ajax Cape Town Aktiv 118 / 129 40% 1 24.12.2026 -
Tyreece Simpson Maritzburg United Aktiv 92 / 92 40% 2 22.12.2026 -
Morgan Whittaker Middlesbrough Aktiv 135 / 134 40% 1 22.12.2026 -
Tomás González Piast Aktiv 119 / 120 40% 1 22.12.2026 -
Tshepang Moremi Orlando Pirates Aktiv 107 / 124 40% 1 21.12.2026 -
Hakim Sulemana Medeama Aktiv 94 / 110 40% 1 21.12.2026 -
Bénie Traoré New York City Aktiv 127 / 136 40% 3 19.12.2026 -
Žan Vipotnik Swansea City Aktiv 132 / 128 40% 1 19.12.2026 -
Dávid Strelec Middlesbrough Aktiv 139 / 135 40% 1 19.12.2026 -
Williams Manyama SuperSport United Aktiv 113 / 128 40% 2 18.12.2026 -
Josh Sargent Toronto FC Aktiv 129 / 138 40% 1 18.12.2026 -
Imrân Louza Watford Aktiv 136 / 129 40% 1 18.12.2026 -
Florentino Luís Ipswich Town Aktiv 136 / 132 40% 2 17.12.2026 -
Itumeleng Zungu Free State Stars Aktiv 95 / 100 40% 1 17.12.2026 -
Kévin Denkey FC Cincinnati Aktiv 136 / 127 40% 2 14.12.2026 -
Rhian Brewster Oxford United Aktiv 122 / 111 40% 1 14.12.2026 -
Themba Ngcobo SuperSport United Aktiv 129 / 113 40% 3 13.12.2026 -
Sagir Arce Paralimni Aktiv 91 / 100 40% 2 13.12.2026 -
Dom Ballard Leyton Orient Aktiv 117 / 130 40% 2 12.12.2026 -
Tom Cannon Sheffield United Aktiv 120 / 123 40% 1 12.12.2026 -
Ilyas Ansah Hull City Aktiv 133 / 128 40% 1 10.12.2026 -
Itumeleng Mothiba Black Aces Aktiv 100 / 96 40% 3 09.12.2026 -
Jesus Ferreira Seattle Sounders Aktiv 120 / 122 40% 2 09.12.2026 -
Loum Tchaouna Coventry City Aktiv 146 / 140 40% 3 08.12.2026 -
Thalente Mbatha Orlando Pirates Aktiv 108 / 129 40% 1 08.12.2026 -
Bradley Zwane Platinum Stars Aktiv 97 / 98 40% 1 08.12.2026 -
Cheikh Sabaly Vancouver Whitecaps Aktiv 128 / 119 40% 4 05.12.2026 -
Giacomo Raspadori Atalanta Aktiv 146 / 140 40% 2 05.12.2026 -
Jonah James Mosta Aktiv 84 / 82 40% 2 05.12.2026 -
Cameron Archer Southampton Aktiv 120 / 118 40% 1 04.12.2026 -
Theo Corbeanu Toronto FC Aktiv 115 / 119 40% 1 02.12.2026 -
Will Lankshear Middlesbrough Aktiv 121 / 128 40% 1 02.12.2026 -
Bismark Asante Ashanti Gold Aktiv 87 / 99 40% 2 01.12.2026 -
Kwame Opoku Asante Kotoko Aktiv 107 / 99 40% 1 01.12.2026 -
Welington Southampton Aktiv 128 / 121 40% 1 26.11.2026 -
Carlos Vicente Birmingham Aktiv 146 / 142 40% 2 24.11.2026 -
Tomás Chancalay Minnesota United FC Aktiv 131 / 117 40% 1 24.11.2026 -
Kelvin Yeboah Minnesota United FC Aktiv 121 / 132 40% 2 22.11.2026 -
Bongani Mothiba SuperSport United Aktiv 78 / 78 40% 1 22.11.2026 -
Ollie Tanner Cardiff City Aktiv 111 / 122 40% 1 21.11.2026 -
Jaden Philogene Ipswich Town Aktiv 131 / 132 40% 1 21.11.2026 -
Petar Stanić Ludogorets Aktiv 133 / 131 40% 1 21.11.2026 -
Kenan Dervišagić Floriana Aktiv 101 / 104 40% 2 20.11.2026 -
Sota Kitano Luzern Aktiv 129 / 120 40% 2 20.11.2026 -
Archie Goodwin Charlotte Football Club Aktiv 116 / 114 40% 1 18.11.2026 -
Igor Jesus Nottingham Forest Aktiv 141 / 144 40% 2 17.11.2026 -
Robert Mizo Ashanti Gold Aktiv 113 / 106 40% 1 17.11.2026 -
Jonathan Gyan Liberty Professionals Aktiv 90 / 91 40% 1 17.11.2026 -
Razvan Balasa Crvena Zvezda Aktiv 154 / 151 40% 1 16.11.2026 -
Aune Heggebø West Bromwich Albion Aktiv 133 / 121 40% 1 15.11.2026 -
Joe Gelhardt Hull City Aktiv 134 / 125 40% 1 15.11.2026 -
Marezi Portsmouth Aktiv 122 / 124 40% 1 10.11.2026 -
Ramiro Ruiz Rodríguez Atlético Tucumán Aktiv 122 / 114 40% 1 09.11.2026 -
Mandla Mahlangu Ajax Cape Town Aktiv 116 / 118 40% 1 09.11.2026 -
Matheus Nascimento FC Dallas Aktiv 125 / 127 40% 1 09.11.2026 -
Bongani Modiba Black Aces Aktiv 126 / 120 40% 2 08.11.2026 -
Matías Fernández Independiente Rivadavia Aktiv 127 / 118 40% 1 08.11.2026 -
Rafael Navarro St. Louis CITY SC Aktiv 116 / 121 40% 4 05.11.2026 -
Zeki Amdouni Burnley Aktiv 139 / 124 40% 2 05.11.2026 -
Liel Abada Charlotte Football Club Aktiv 122 / 144 40% 2 04.11.2026 -
Sinoxolo Kwayiba Chippa United Aktiv 113 / 103 40% 1 04.11.2026 -
Amin Boudri Los Angeles Football Club Aktiv 117 / 136 40% 2 03.11.2026 -
Dean Erasmus Platinum Stars Aktiv 96 / 85 40% 2 03.11.2026 -
Ammar Ramadan DAC Dunajska Streda Aktiv 122 / 117 40% 1 03.11.2026 -
Wessam Abou Ali Columbus Crew Aktiv 129 / 122 40% 2 02.11.2026 -
Martín Ojeda Orlando City Aktiv 128 / 126 40% 3 02.11.2026 -
Jackson Muleka Konyaspor Aktiv 121 / 115 40% 1 31.10.2026 -
Maren Haile-Selassie Chicago Fire Aktiv 127 / 115 40% 1 31.10.2026 -
Alan Lescano Argentinos Juniors Aktiv 125 / 137 40% 1 31.10.2026 -
Ignacio Lago Colón Aktiv 110 / 119 40% 2 30.10.2026 -
Tashreeq Matthews Mamelodi Sundowns Aktiv 114 / 121 40% 1 30.10.2026 -
Manfred Ugalde Spartak Moscow Aktiv 134 / 128 40% 1 30.10.2026 -
Victor Olatunji Real Salt Lake Aktiv 121 / 127 40% 1 29.10.2026 -
Antony Portland Timbers Aktiv 127 / 140 40% 2 28.10.2026 -
Mandla Erasmus SuperSport United Aktiv 114 / 133 40% 1 28.10.2026 -
Paxten Aaronson Colorado Rapids Aktiv 129 / 129 40% 1 28.10.2026 -
Keagan Mothiba SuperSport United Aktiv 126 / 105 40% 1 26.10.2026 -
João Peglow DC United Aktiv 121 / 114 40% 1 26.10.2026 -
Alexis Cuello San Lorenzo Aktiv 126 / 120 40% 2 23.10.2026 -
Georginio Rutter Brighton Aktiv 150 / 155 40% 1 23.10.2026 -
Alex Luna Instituto Aktiv 133 / 132 40% 1 22.10.2026 -
Dagur Dan Þórhallsson CF Montreal Aktiv 123 / 122 40% 1 22.10.2026 -
Nicolás Fernández Mercau Shakhtar Aktiv 140 / 129 40% 2 21.10.2026 -
Sean Zawadzki Columbus Crew Aktiv 111 / 123 40% 1 21.10.2026 -
Jahkeele Marshall-Rutty New York Red Bulls Aktiv 123 / 120 40% 1 21.10.2026 -
Hannes Wolf New York City Aktiv 119 / 112 40% 1 20.10.2026 -
Wandile Duba Maritzburg United Aktiv 112 / 99 40% 2 18.10.2026 -
Nathan Ordaz Metalist Aktiv 105 / 116 40% 1 18.10.2026 -
Bongokuhle Hlongwane Minnesota United FC Aktiv 131 / 115 40% 2 17.10.2026 -
Aaron Connolly Leyton Orient Aktiv 117 / 120 40% 2 17.10.2026 -
Andrés Herrera Columbus Crew Aktiv 124 / 122 40% 1 14.10.2026 -
Telasco Segovia Inter Miami CF Aktiv 127 / 140 40% 1 13.10.2026 -
Adnan Courtois KV Oostende Aktiv 138 / 129 40% 2 12.10.2026 -
Iván Angulo Orlando City Aktiv 134 / 137 40% 1 12.10.2026 -
Anthony Okachi Great Olympics Aktiv 104 / 88 40% 1 12.10.2026 -
Nicolás Cordero Aldosivi Aktiv 115 / 120 40% 1 08.10.2026 -
George Hirst Stoke City Aktiv 141 / 132 40% 1 08.10.2026 -
Kian Spence Rotherham United Aktiv 106 / 113 72% 1 24.08.2026 Befürworten